Time;durP1;ratioP1;P1;durP2;ratioP2;P2;SDS_P1;SDS_P2;PMS_P1;PMS_P2;Temp;Humidity;BMP_temperature;BMP_pressure;BME280_temperature;BME280_humidity;BME280_pressure;Samples;Min_cycle;Max_cycle;Signal;HPM_P1;HPM_P2
2023/10/27 00:00:09;;;;;;;5.80;4.80;;;;;;;12.49;77.94;97068.69;5146580;28;20043;-77
2023/10/27 00:02:38;;;;;;;7.22;4.75;;;;;;;12.70;78.49;97108.22;5128526;28;20038;-76
2023/10/27 00:05:05;;;;;;;6.53;4.97;;;;;;;12.67;78.53;97100.56;5146567;28;20088;-76
2023/10/27 00:07:33;;;;;;;6.00;4.85;;;;;;;12.64;78.80;97103.53;5146586;28;20076;-76
2023/10/27 00:10:00;;;;;;;6.68;5.20;;;;;;;12.63;78.80;97099.19;5146943;28;20054;-76
2023/10/27 00:12:27;;;;;;;6.15;5.10;;;;;;;11.95;78.67;96974.81;5146735;28;20092;-76
2023/10/27 00:14:53;;;;;;;6.35;5.07;;;;;;;12.64;78.67;97092.91;5111653;28;20081;-76
2023/10/27 00:17:20;;;;;;;6.97;5.10;;;;;;;12.56;79.09;97085.69;5146313;28;20084;-76
2023/10/27 00:19:47;;;;;;;8.27;5.13;;;;;;;12.37;79.00;97054.78;5128954;28;20039;-76
2023/10/27 00:22:14;;;;;;;7.57;5.55;;;;;;;12.48;79.62;97093.56;5128259;28;20039;-76
2023/10/27 00:24:42;;;;;;;6.00;5.40;;;;;;;12.54;79.53;97084.16;5146232;28;20039;-76
2023/10/27 00:27:09;;;;;;;8.98;5.63;;;;;;;12.54;79.41;97092.13;5128311;28;20039;-76
2023/10/27 00:29:36;;;;;;;16.80;6.25;;;;;;;12.54;79.46;97086.81;5128278;28;20288;-76
2023/10/27 00:32:02;;;;;;;6.53;5.28;;;;;;;12.52;79.95;97077.19;5146363;28;20164;-76
2023/10/27 00:34:30;;;;;;;9.15;5.97;;;;;;;12.21;80.13;97045.81;5128193;28;20147;-76
2023/10/27 00:36:56;;;;;;;8.82;5.18;;;;;;;11.27;79.93;96873.63;5130431;27;20088;-77
2023/10/27 00:39:23;;;;;;;6.78;5.50;;;;;;;12.50;79.57;97070.34;5150297;27;20088;-76
2023/10/27 00:41:51;;;;;;;6.95;4.95;;;;;;;12.53;79.58;97067.41;5132089;27;20039;-76
2023/10/27 00:44:18;;;;;;;7.60;5.85;;;;;;;12.55;79.87;97069.91;5131950;27;20043;-76
2023/10/27 00:46:45;;;;;;;6.00;5.05;;;;;;;12.22;79.68;97029.75;5131933;27;20043;-76
2023/10/27 00:49:12;;;;;;;5.57;4.50;;;;;;;11.57;79.34;96909.59;5112191;28;20249;-76
2023/10/27 00:51:39;;;;;;;5.97;4.72;;;;;;;12.54;79.88;97062.91;5129758;28;20103;-76
2023/10/27 00:54:08;;;;;;;5.88;4.68;;;;;;;12.55;79.76;97064.59;5128332;28;20096;-76
2023/10/27 00:56:36;;;;;;;5.78;4.90;;;;;;;12.57;79.75;97067.91;5129429;28;20040;-77
2023/10/27 00:59:04;;;;;;;5.93;4.85;;;;;;;12.58;79.86;97061.63;5128223;28;20050;-76
2023/10/27 01:01:33;;;;;;;6.63;5.43;;;;;;;12.58;79.35;97062.47;5129339;28;20040;-76
2023/10/27 01:04:00;;;;;;;6.13;4.45;;;;;;;12.56;79.38;97048.50;5129313;28;20039;-76
2023/10/27 01:06:27;;;;;;;6.60;5.38;;;;;;;12.58;79.66;97053.66;5128404;28;20234;-77
2023/10/27 01:08:55;;;;;;;6.63;4.97;;;;;;;12.57;79.55;97042.19;5130334;28;20100;-77
2023/10/27 01:11:22;;;;;;;6.55;5.47;;;;;;;12.54;79.74;97034.53;5112139;28;20074;-77
2023/10/27 01:13:51;;;;;;;7.60;6.07;;;;;;;12.50;80.36;97017.22;5129807;28;20047;-77
2023/10/27 01:16:19;;;;;;;8.10;5.40;;;;;;;12.48;80.42;97025.34;5129561;28;20055;-77
2023/10/27 01:18:46;;;;;;;7.15;5.28;;;;;;;12.47;80.38;97015.69;5128712;28;20056;-77
2023/10/27 01:21:13;;;;;;;7.50;5.18;;;;;;;12.51;80.02;97003.78;5128978;28;20290;-77
2023/10/27 01:23:41;;;;;;;5.35;4.82;;;;;;;12.51;79.92;96995.81;5128966;28;20051;-77
2023/10/27 01:26:08;;;;;;;7.35;5.15;;;;;;;12.19;79.85;96931.81;5128636;28;20054;-77
2023/10/27 01:28:35;;;;;;;7.80;5.18;;;;;;;11.54;79.85;96814.41;5128429;28;20051;-77
2023/10/27 01:31:02;;;;;;;5.70;4.65;;;;;;;12.55;79.68;96976.91;5128731;28;20293;-77
2023/10/27 01:33:28;;;;;;;6.40;5.15;;;;;;;12.52;80.08;96973.56;5127654;28;20379;-77
2023/10/27 01:35:55;;;;;;;5.07;4.43;;;;;;;12.54;79.99;96964.59;5128651;28;20325;-76
2023/10/27 01:38:22;;;;;;;6.38;5.78;;;;;;;12.34;79.80;96924.13;5127497;28;20043;-77
2023/10/27 01:40:50;;;;;;;5.53;4.75;;;;;;;12.59;79.53;96952.53;5128359;28;20092;-77
2023/10/27 01:43:17;;;;;;;4.78;3.85;;;;;;;12.59;79.88;96949.88;5128805;28;20051;-77
2023/10/27 01:45:44;;;;;;;5.97;4.00;;;;;;;12.22;79.68;96891.66;5128535;28;20052;-77
2023/10/27 01:48:10;;;;;;;5.18;4.20;;;;;;;12.56;80.11;96950.19;5127877;28;20304;-77
2023/10/27 01:50:37;;;;;;;5.72;4.72;;;;;;;12.57;79.75;96937.72;5144834;27;20051;-76
2023/10/27 01:53:04;;;;;;;5.10;4.10;;;;;;;11.36;79.84;96739.31;5131782;27;20039;-77
2023/10/27 01:55:30;;;;;;;7.40;4.63;;;;;;;11.63;80.05;96786.97;5148902;27;20043;-77
2023/10/27 01:57:58;;;;;;;6.03;4.25;;;;;;;12.56;80.18;96942.22;5148819;27;20058;-77
2023/10/27 02:00:25;;;;;;;4.97;4.32;;;;;;;12.55;80.66;96931.75;5130444;27;20047;-77
2023/10/27 02:02:52;;;;;;;5.10;4.00;;;;;;;12.23;80.40;96872.09;5148689;27;20035;-77
2023/10/27 02:05:19;;;;;;;4.20;3.80;;;;;;;12.57;80.27;96924.44;5130360;27;20039;-77
2023/10/27 02:07:47;;;;;;;6.10;4.00;;;;;;;12.59;80.33;96923.31;5130314;27;20088;-77
2023/10/27 02:10:14;;;;;;;5.53;4.93;;;;;;;12.54;80.45;96911.47;5131086;27;20035;-77
2023/10/27 02:12:40;;;;;;;10.05;6.93;;;;;;;11.14;80.14;96675.19;5130161;27;20043;-77
2023/10/27 02:15:09;;;;;;;9.35;6.05;;;;;;;12.56;80.35;96902.34;5130168;27;20042;-77
2023/10/27 02:17:38;;;;;;;7.22;5.72;;;;;;;12.59;80.44;96893.25;5130180;27;20046;-77
2023/10/27 02:20:05;;;;;;;5.88;4.97;;;;;;;12.60;80.01;96871.84;5148376;27;20050;-77
2023/10/27 02:22:32;;;;;;;4.82;4.32;;;;;;;12.67;79.64;96872.03;5130803;27;20035;-77
2023/10/27 02:24:59;;;;;;;5.85;4.47;;;;;;;12.64;80.17;96867.88;5130787;27;20043;-77
2023/10/27 02:27:26;;;;;;;5.30;4.72;;;;;;;12.62;80.41;96871.66;5148231;27;20051;-77
2023/10/27 02:29:52;;;;;;;5.78;4.78;;;;;;;12.52;81.39;96867.31;5148172;27;20053;-77
2023/10/27 02:32:21;;;;;;;5.72;4.60;;;;;;;12.51;81.67;96870.13;5129874;27;20230;-77
2023/10/27 02:34:47;;;;;;;6.20;4.40;;;;;;;12.54;81.79;96863.66;5148130;27;20125;-76
2023/10/27 02:37:14;;;;;;;6.63;5.18;;;;;;;12.47;81.53;96861.63;5129131;27;20058;-77
2023/10/27 02:39:41;;;;;;;4.93;4.43;;;;;;;12.44;81.99;96856.63;5129714;27;20039;-77
2023/10/27 02:42:08;;;;;;;5.90;4.68;;;;;;;12.27;82.06;96827.47;5129654;27;20031;-77
2023/10/27 02:44:35;;;;;;;5.75;4.68;;;;;;;12.42;82.10;96850.63;5147893;27;20084;-77
2023/10/27 02:47:02;;;;;;;5.65;4.80;;;;;;;11.61;82.00;96706.69;5147919;27;20145;-77
2023/10/27 02:49:30;;;;;;;6.00;4.68;;;;;;;12.47;82.45;96851.00;5125950;28;20055;-77
2023/10/27 02:54:27;;;;;;;6.68;5.63;;;;;;;12.14;84.53;96841.13;5144796;27;20108;-75
2023/10/27 02:56:54;;;;;;;6.43;5.70;;;;;;;11.83;83.57;96769.03;5143518;28;20058;-75
2023/10/27 02:59:20;;;;;;;6.97;6.03;;;;;;;12.24;84.12;96825.94;5144627;28;20039;-75
2023/10/27 03:01:47;;;;;;;6.20;5.28;;;;;;;11.91;84.40;96763.78;5143111;28;20096;-75
2023/10/27 03:04:14;;;;;;;5.70;5.07;;;;;;;11.86;83.72;96742.19;5144181;28;20182;-76
2023/10/27 03:06:41;;;;;;;6.03;5.43;;;;;;;12.41;82.59;96822.41;5144182;28;20043;-76
2023/10/27 03:09:08;;;;;;;7.45;5.80;;;;;;;12.44;82.55;96803.50;5143874;28;20084;-76
2023/10/27 03:11:36;;;;;;;7.60;6.03;;;;;;;12.39;83.51;96791.69;5143269;28;20047;-76
2023/10/27 03:14:03;;;;;;;8.85;6.07;;;;;;;12.30;84.05;96789.97;5143739;27;20039;-76
2023/10/27 03:16:30;;;;;;;7.25;6.10;;;;;;;12.30;84.44;96782.00;5143746;28;20031;-76
2023/10/27 03:18:57;;;;;;;7.43;6.20;;;;;;;12.30;84.37;96779.34;5143938;27;20250;-76
2023/10/27 03:21:25;;;;;;;12.40;6.78;;;;;;;12.03;83.99;96716.59;5143894;28;20058;-76
2023/10/27 03:23:52;;;;;;;7.97;5.97;;;;;;;12.00;84.09;96699.19;5143838;28;20039;-76
2023/10/27 03:26:18;;;;;;;7.70;6.15;;;;;;;12.39;83.89;96755.31;5143618;28;20047;-77
2023/10/27 03:28:47;;;;;;;8.80;6.53;;;;;;;11.79;84.65;96659.72;5143683;28;20043;-77
2023/10/27 03:31:14;;;;;;;7.07;6.40;;;;;;;12.17;85.45;96739.94;5143736;27;20043;-77
2023/10/27 03:33:41;;;;;;;12.15;7.72;;;;;;;12.17;85.36;96724.84;5143835;28;20106;-77
2023/10/27 03:36:08;;;;;;;7.55;6.57;;;;;;;12.14;85.75;96726.94;5143624;28;20051;-77
2023/10/27 03:38:34;;;;;;;9.00;6.43;;;;;;;12.07;86.74;96726.75;5143241;28;20322;-76
2023/10/27 03:41:01;;;;;;;12.35;6.82;;;;;;;12.18;85.87;96715.06;5143434;28;20062;-77
2023/10/27 03:43:28;;;;;;;7.75;6.60;;;;;;;12.07;86.82;96717.97;5143457;28;20183;-76
2023/10/27 03:45:57;;;;;;;8.50;7.35;;;;;;;12.11;86.26;96709.53;5142299;28;20067;-77
2023/10/27 03:48:23;;;;;;;9.18;7.78;;;;;;;12.05;86.87;96712.81;5143063;28;20051;-77
2023/10/27 03:50:50;;;;;;;10.73;7.07;;;;;;;12.07;86.83;96707.34;5143042;28;20043;-76
2023/10/27 03:53:17;;;;;;;8.00;6.93;;;;;;;12.02;87.14;96705.16;5131547;28;20052;-76
2023/10/27 03:55:44;;;;;;;7.72;7.03;;;;;;;12.02;87.25;96707.81;5104693;28;20072;-77
2023/10/27 03:58:14;;;;;;;7.90;7.10;;;;;;;12.09;86.67;96711.50;5122585;28;20085;-76
2023/10/27 04:00:41;;;;;;;8.90;7.63;;;;;;;12.11;86.58;96701.56;5122561;28;20089;-76
2023/10/27 04:03:09;;;;;;;9.75;7.18;;;;;;;12.09;87.20;96694.75;5122826;28;20097;-76
2023/10/27 04:05:36;;;;;;;8.80;6.85;;;;;;;12.04;87.66;96687.25;5109470;28;20333;-76
2023/10/27 04:08:04;;;;;;;8.45;7.60;;;;;;;12.03;87.19;96684.75;5090752;28;20047;-76
2023/10/27 04:10:31;;;;;;;7.50;6.80;;;;;;;12.02;87.20;96673.31;5090702;28;20090;-76
2023/10/27 04:12:58;;;;;;;9.82;7.70;;;;;;;12.10;86.55;96677.81;5090876;28;20109;-76
2023/10/27 04:15:25;;;;;;;11.98;9.20;;;;;;;12.04;87.19;96679.28;5108419;28;20086;-76
2023/10/27 04:17:52;;;;;;;9.00;7.88;;;;;;;12.12;86.22;96673.19;5091475;28;20086;-76
2023/10/27 04:20:20;;;;;;;7.90;7.10;;;;;;;12.18;86.19;96672.56;5108287;28;20055;-76
2023/10/27 04:22:47;;;;;;;7.88;7.07;;;;;;;12.18;85.54;96657.47;5108803;28;20036;-76
2023/10/27 04:25:14;;;;;;;9.45;7.20;;;;;;;12.13;86.39;96659.75;5108486;28;20111;-76
2023/10/27 04:27:41;;;;;;;7.35;6.65;;;;;;;12.11;85.94;96656.41;5108412;28;20040;-76
2023/10/27 04:30:11;;;;;;;7.63;6.53;;;;;;;11.87;85.38;96595.25;5108369;28;20044;-76
2023/10/27 04:32:39;;;;;;;7.80;6.57;;;;;;;12.03;85.68;96623.69;5090300;28;20062;-76
2023/10/27 04:35:06;;;;;;;6.90;6.20;;;;;;;12.21;85.73;96655.50;5091395;28;20044;-76
2023/10/27 04:37:34;;;;;;;7.07;5.93;;;;;;;12.26;84.96;96655.84;5108259;28;20044;-76
2023/10/27 04:40:02;;;;;;;11.23;6.68;;;;;;;11.36;85.47;96528.03;5107892;28;20067;-76
2023/10/27 04:42:29;;;;;;;6.88;6.22;;;;;;;12.33;84.76;96662.19;5108118;28;20047;-76
2023/10/27 04:44:55;;;;;;;6.25;5.65;;;;;;;12.33;85.56;96649.72;5108099;28;20201;-76
2023/10/27 04:47:22;;;;;;;7.85;6.88;;;;;;;12.23;87.07;96641.06;5108319;28;20052;-76
2023/10/27 04:49:49;;;;;;;7.63;6.53;;;;;;;12.16;88.01;96637.34;5107680;28;20292;-76
2023/10/27 04:52:16;;;;;;;8.85;7.18;;;;;;;12.10;88.89;96625.56;5107524;28;20052;-76
2023/10/27 04:54:44;;;;;;;8.70;7.32;;;;;;;12.20;87.81;96625.47;5107713;28;20052;-76
2023/10/27 04:57:10;;;;;;;8.27;7.30;;;;;;;12.30;86.63;96612.03;5107859;28;20055;-76
2023/10/27 04:59:37;;;;;;;8.45;6.57;;;;;;;12.32;86.94;96607.41;5107826;28;20090;-76
2023/10/27 05:02:04;;;;;;;7.65;6.85;;;;;;;12.25;88.01;96601.06;5089668;28;20227;-76
2023/10/27 05:04:31;;;;;;;9.27;7.50;;;;;;;12.18;88.89;96600.88;5107671;28;20311;-76
2023/10/27 05:06:58;;;;;;;7.88;6.80;;;;;;;12.13;89.24;96589.88;5090288;28;20040;-76
2023/10/27 05:09:25;;;;;;;10.05;6.93;;;;;;;12.14;89.11;96595.03;5107623;28;20052;-76
2023/10/27 05:11:53;;;;;;;9.27;6.97;;;;;;;12.10;89.30;96591.03;5107587;28;20055;-76
2023/10/27 05:14:20;;;;;;;7.70;6.97;;;;;;;12.09;89.45;96584.06;5089414;28;20039;-76
2023/10/27 05:16:47;;;;;;;6.53;5.65;;;;;;;12.08;89.21;96573.63;5106781;28;20059;-76
2023/10/27 05:19:13;;;;;;;6.22;5.63;;;;;;;12.14;89.31;96572.97;5107421;28;20040;-76
2023/10/27 05:21:40;;;;;;;6.57;5.97;;;;;;;12.21;88.49;96554.59;5107104;28;20043;-76
2023/10/27 05:24:09;;;;;;;10.15;8.07;;;;;;;12.20;88.98;96553.78;5107413;28;20093;-76
2023/10/27 05:26:35;;;;;;;7.88;7.18;;;;;;;12.25;88.85;96555.94;5089641;28;20295;-76
2023/10/27 05:29:04;;;;;;;6.88;6.18;;;;;;;12.32;87.97;96556.94;5107097;28;20102;-76
2023/10/27 05:31:30;;;;;;;6.72;6.13;;;;;;;12.32;88.42;96551.63;5107155;28;20051;-76
2023/10/27 05:33:57;;;;;;;7.13;6.43;;;;;;;12.26;88.29;96534.53;5089002;28;20047;-76
2023/10/27 05:36:24;;;;;;;7.28;6.35;;;;;;;12.23;89.18;96531.38;5089305;28;20152;-76
2023/10/27 05:38:51;;;;;;;6.85;6.25;;;;;;;12.17;90.22;96535.50;5107083;28;20208;-76
2023/10/27 05:41:17;;;;;;;7.93;6.43;;;;;;;12.22;89.32;96538.50;5089467;28;20040;-76
2023/10/27 05:43:44;;;;;;;7.55;6.85;;;;;;;12.32;88.69;96536.53;5106636;28;20036;-76
2023/10/27 05:46:13;;;;;;;8.18;7.35;;;;;;;12.35;88.54;96530.91;5106642;28;20101;-76
2023/10/27 05:48:40;;;;;;;9.10;7.75;;;;;;;12.36;88.18;96526.41;5106881;28;20099;-76
2023/10/27 05:51:07;;;;;;;7.53;6.75;;;;;;;12.41;87.98;96530.22;5106800;28;20093;-76
2023/10/27 05:53:34;;;;;;;6.93;6.22;;;;;;;12.39;88.51;96524.25;5106391;28;20055;-76
2023/10/27 05:56:00;;;;;;;7.90;6.25;;;;;;;12.39;88.19;96524.25;5106767;28;20052;-76
2023/10/27 05:58:32;;;;;;;7.97;5.32;;;;;;;12.09;87.81;96471.75;5106596;28;20052;-76
2023/10/27 06:00:59;;;;;;;7.88;5.97;;;;;;;12.42;87.89;96526.59;5088626;28;20093;-76
2023/10/27 06:03:27;;;;;;;6.18;5.53;;;;;;;12.43;88.11;96519.44;5106613;28;20276;-77
2023/10/27 06:05:54;;;;;;;6.40;5.80;;;;;;;12.43;88.21;96506.16;5106517;28;20101;-76
2023/10/27 06:08:21;;;;;;;6.75;5.35;;;;;;;12.46;88.47;96509.31;5106571;28;20043;-76
2023/10/27 06:10:48;;;;;;;6.25;5.65;;;;;;;12.43;88.49;96500.84;5088661;28;20319;-77
2023/10/27 06:13:14;;;;;;;9.45;5.10;;;;;;;12.45;88.55;96507.66;5106547;28;20269;-77
2023/10/27 06:15:41;;;;;;;10.95;9.80;;;;;;;12.50;87.97;96496.53;5106112;28;20288;-77
2023/10/27 06:18:08;;;;;;;8.18;7.05;;;;;;;12.48;88.31;96503.84;5106048;28;20055;-77
2023/10/27 06:20:36;;;;;;;6.18;5.05;;;;;;;12.01;88.67;96429.25;5106287;28;20282;-76
2023/10/27 06:23:04;;;;;;;5.10;4.60;;;;;;;12.50;88.52;96509.81;5106247;28;20044;-77
2023/10/27 06:25:30;;;;;;;4.07;3.15;;;;;;;12.46;89.27;96506.66;5105970;28;20048;-77
2023/10/27 06:27:57;;;;;;;5.05;3.20;;;;;;;12.48;89.08;96515.31;5106257;28;20050;-77
2023/10/27 06:30:24;;;;;;;3.90;3.40;;;;;;;12.51;88.54;96517.63;5088152;28;20044;-77
2023/10/27 06:32:51;;;;;;;4.05;3.28;;;;;;;12.33;88.46;96482.44;5106079;28;20106;-77
2023/10/27 06:35:18;;;;;;;5.03;3.47;;;;;;;12.54;89.84;96524.44;5088877;28;20039;-77
2023/10/27 06:37:46;;;;;;;5.72;3.55;;;;;;;12.49;90.28;96524.94;5088292;28;20218;-77
2023/10/27 06:40:13;;;;;;;5.20;3.70;;;;;;;12.52;89.59;96521.94;5105792;28;20067;-77
2023/10/27 06:42:39;;;;;;;4.00;3.38;;;;;;;12.52;89.77;96519.28;5106072;28;20040;-77
2023/10/27 06:45:08;;;;;;;4.03;2.95;;;;;;;12.56;89.80;96519.78;5088054;28;20058;-77
2023/10/27 06:47:35;;;;;;;3.95;3.50;;;;;;;12.55;90.32;96530.56;5106065;28;20353;-77
2023/10/27 06:50:03;;;;;;;4.35;3.35;;;;;;;12.55;89.75;96523.44;5106194;28;20044;-77
2023/10/27 06:52:29;;;;;;;4.18;3.63;;;;;;;11.74;90.36;96394.03;5093253;28;20090;-77
2023/10/27 06:54:58;;;;;;;5.57;3.65;;;;;;;12.23;89.86;96462.34;5126512;28;20043;-77
2023/10/27 06:57:24;;;;;;;5.20;3.83;;;;;;;12.58;90.05;96524.94;5126287;28;20043;-77
2023/10/27 06:59:55;;;;;;;4.07;2.97;;;;;;;12.62;89.47;96532.41;5125908;28;20044;-77
2023/10/27 07:02:22;;;;;;;3.70;2.88;;;;;;;12.60;90.11;96523.78;5125061;28;20048;-77
2023/10/27 07:04:48;;;;;;;4.20;3.20;;;;;;;12.63;89.90;96527.94;5126114;28;20439;-77
2023/10/27 07:07:15;;;;;;;3.70;2.67;;;;;;;11.86;90.44;96399.84;5125724;28;20039;-77
2023/10/27 07:09:42;;;;;;;4.00;2.92;;;;;;;11.81;91.16;96410.13;5126036;28;20048;-76
2023/10/27 07:12:10;;;;;;;4.25;2.72;;;;;;;12.62;90.43;96536.88;5126363;28;20050;-77
2023/10/27 07:14:37;;;;;;;3.30;2.40;;;;;;;12.44;91.32;96513.97;5124745;28;20311;-77
2023/10/27 07:17:04;;;;;;;3.85;2.42;;;;;;;12.58;91.74;96540.88;5125985;28;20238;-77
2023/10/27 07:19:33;;;;;;;3.10;2.50;;;;;;;12.59;91.05;96543.38;5125991;28;20093;-77
2023/10/27 07:22:00;;;;;;;4.65;2.42;;;;;;;12.63;90.86;96547.34;5125560;28;20341;-76
2023/10/27 07:24:29;;;;;;;3.42;2.30;;;;;;;12.60;91.67;96547.69;5126105;28;20048;-77
2023/10/27 07:26:56;;;;;;;3.35;2.60;;;;;;;12.62;90.59;96544.88;5125912;28;20051;-77
2023/10/27 07:29:24;;;;;;;3.78;2.53;;;;;;;12.65;90.52;96549.84;5107942;28;20237;-77
2023/10/27 07:31:51;;;;;;;4.35;2.35;;;;;;;12.60;91.00;96545.03;5126270;28;20055;-77
2023/10/27 07:34:18;;;;;;;3.78;2.78;;;;;;;12.19;91.88;96493.69;5126132;28;20054;-77
2023/10/27 07:36:44;;;;;;;4.25;3.00;;;;;;;11.70;92.03;96419.22;5125363;28;20303;-77
2023/10/27 07:39:11;;;;;;;4.15;2.40;;;;;;;12.55;91.60;96557.16;5126480;28;20055;-77
2023/10/27 07:41:38;;;;;;;6.90;2.80;;;;;;;12.57;91.32;96561.31;5129749;28;20234;-77
2023/10/27 07:44:05;;;;;;;3.67;2.50;;;;;;;12.59;90.93;96551.34;5129052;28;20039;-77
2023/10/27 07:46:33;;;;;;;4.72;2.72;;;;;;;12.59;90.53;96554.00;5129530;28;20039;-77
2023/10/27 07:49:00;;;;;;;4.10;2.47;;;;;;;12.55;91.49;96559.81;5129701;27;20096;-77
2023/10/27 07:51:27;;;;;;;4.20;3.13;;;;;;;12.55;91.14;96568.59;5129553;28;20051;-77
2023/10/27 07:53:54;;;;;;;3.47;2.03;;;;;;;8.50;89.85;95933.81;5128261;28;20119;-77
2023/10/27 07:56:20;;;;;;;3.70;2.13;;;;;;;12.16;90.42;96505.47;5129333;28;20032;-77
2023/10/27 07:58:48;;;;;;;3.35;2.63;;;;;;;12.49;90.69;96577.22;5129151;28;20091;-77
2023/10/27 08:01:15;;;;;;;4.78;2.42;;;;;;;12.44;90.94;96585.69;5129598;28;20047;-77
2023/10/27 08:03:43;;;;;;;4.60;2.28;;;;;;;12.39;90.86;96592.47;5128167;28;20322;-77
2023/10/27 08:06:10;;;;;;;3.17;1.90;;;;;;;12.40;90.67;96607.41;5128755;28;20047;-77
2023/10/27 08:08:37;;;;;;;3.13;2.42;;;;;;;11.91;90.34;96527.56;5129215;28;20196;-77
2023/10/27 08:13:20;;;;;;;3.90;2.10;;;;;;;11.87;90.32;96531.53;5165654;27;20121;-78
2023/10/27 08:15:47;;;;;;;3.72;1.90;;;;;;;12.07;90.12;96574.59;5164326;27;20065;-76
2023/10/27 08:18:14;;;;;;;2.40;1.50;;;;;;;12.32;89.67;96615.38;5146522;27;20035;-76
2023/10/27 08:20:41;;;;;;;3.83;1.95;;;;;;;12.15;89.53;96633.03;5146342;27;20047;-78
2023/10/27 08:23:09;;;;;;;3.75;1.75;;;;;;;12.18;89.46;96630.09;5146629;27;20051;-77
2023/10/27 08:25:36;;;;;;;2.90;1.80;;;;;;;12.18;88.94;96640.72;5164462;27;20043;-77
2023/10/27 08:28:04;;;;;;;3.30;1.85;;;;;;;11.70;88.63;96570.44;5146344;27;20118;-76
2023/10/27 08:30:33;;;;;;;2.35;1.55;;;;;;;12.23;86.83;96682.72;5146221;27;20043;-76
2023/10/27 08:32:59;;;;;;;2.78;1.65;;;;;;;12.28;86.77;96691.88;5164535;27;20046;-76
2023/10/27 08:35:26;;;;;;;2.75;1.60;;;;;;;12.20;86.02;96713.06;5129334;27;20074;-76
2023/10/27 08:37:53;;;;;;;2.75;1.90;;;;;;;12.11;85.75;96695.41;5146331;27;20335;-76
2023/10/27 08:40:20;;;;;;;2.50;1.75;;;;;;;12.10;85.28;96691.94;5146350;27;20039;-76
2023/10/27 08:42:49;;;;;;;2.35;1.67;;;;;;;11.96;84.81;96687.19;5145686;27;20088;-76
2023/10/27 08:45:16;;;;;;;3.63;1.90;;;;;;;11.70;85.05;96633.28;5164395;27;20073;-76
2023/10/27 08:47:44;;;;;;;2.97;1.80;;;;;;;11.87;84.82;96681.00;5128995;27;20063;-76
2023/10/27 08:50:11;;;;;;;2.83;1.65;;;;;;;11.81;85.09;96686.09;5164242;27;20039;-76
2023/10/27 08:52:39;;;;;;;2.67;2.08;;;;;;;11.86;85.28;96668.72;5129052;27;20108;-76
2023/10/27 08:55:09;;;;;;;4.22;2.63;;;;;;;11.76;85.92;96653.88;5164266;27;20039;-77
2023/10/27 08:57:36;;;;;;;2.92;2.00;;;;;;;11.67;86.21;96658.31;5163816;27;20054;-77
2023/10/27 09:00:05;;;;;;;2.55;1.63;;;;;;;11.62;86.95;96660.59;5146264;27;20042;-77
2023/10/27 09:02:33;;;;;;;2.50;1.58;;;;;;;11.35;87.25;96615.69;5164135;27;20046;-77
2023/10/27 09:05:04;;;;;;;2.70;1.83;;;;;;;11.66;87.60;96664.63;5146413;27;20039;-77
2023/10/27 09:07:31;;;;;;;2.45;1.80;;;;;;;11.65;87.62;96739.06;5164018;27;20060;-77
2023/10/27 09:09:58;;;;;;;2.50;1.98;;;;;;;11.52;88.34;96662.53;5163670;27;20352;-77
2023/10/27 09:12:27;;;;;;;4.38;1.90;;;;;;;11.70;88.20;96692.50;5163496;27;20047;-78
2023/10/27 09:15:04;;;;;;;4.10;1.52;;;;;;;11.71;88.11;96698.63;5146116;27;20049;-77
2023/10/27 09:17:31;;;;;;;2.63;1.83;;;;;;;11.80;87.23;96703.84;5163697;27;20294;-77
2023/10/27 09:20:08;;;;;;;2.70;1.77;;;;;;;11.81;87.37;96702.00;5164068;27;20053;-77
2023/10/27 09:22:36;;;;;;;4.13;2.17;;;;;;;11.76;87.80;96710.44;5161773;27;20199;-78
2023/10/27 09:25:18;;;;;;;4.47;2.85;;;;;;;11.75;88.70;96707.94;5148342;27;20047;-77
2023/10/27 09:27:46;;;;;;;3.78;2.35;;;;;;;11.78;88.37;96704.97;5146660;27;20084;-77
2023/10/27 09:30:14;;;;;;;5.47;3.58;;;;;;;11.78;88.81;96703.16;5149878;27;20047;-77
2023/10/27 09:32:44;;;;;;;5.03;3.30;;;;;;;11.42;89.11;96664.44;5147847;27;20257;-77
2023/10/27 09:35:14;;;;;;;3.70;2.67;;;;;;;11.20;88.23;96629.50;5148410;27;20314;-77
2023/10/27 09:37:42;;;;;;;3.10;1.95;;;;;;;11.81;87.86;96736.50;5149201;27;20051;-77
2023/10/27 09:40:11;;;;;;;3.40;2.55;;;;;;;10.17;88.54;96486.25;5149494;27;20305;-77
2023/10/27 09:42:39;;;;;;;3.13;2.33;;;;;;;11.76;88.82;96750.25;5149062;27;20118;-77
2023/10/27 09:45:11;;;;;;;2.80;2.10;;;;;;;11.80;89.19;96759.56;5148023;27;20047;-77
2023/10/27 09:47:46;;;;;;;2.75;1.92;;;;;;;10.96;88.61;96631.13;5131199;27;20076;-77
2023/10/27 09:50:19;;;;;;;3.65;2.15;;;;;;;11.79;89.15;96775.63;5149250;27;20221;-77
2023/10/27 09:52:47;;;;;;;3.20;2.40;;;;;;;11.86;88.34;96777.53;5149115;27;20035;-77
2023/10/27 09:55:16;;;;;;;3.22;2.45;;;;;;;11.91;87.56;96782.34;5148856;27;20043;-78
2023/10/27 09:57:45;;;;;;;2.85;2.25;;;;;;;11.88;88.19;96798.59;5147971;27;20299;-78
2023/10/27 10:00:14;;;;;;;2.88;2.00;;;;;;;11.44;87.71;96719.00;5147986;27;20080;-78
2023/10/27 10:02:42;;;;;;;2.92;2.28;;;;;;;11.89;87.43;96816.19;5147973;27;20092;-78
2023/10/27 10:05:11;;;;;;;3.47;2.20;;;;;;;11.81;87.41;96814.28;5147916;27;20080;-78
2023/10/27 10:07:43;;;;;;;2.95;2.17;;;;;;;11.36;87.57;96755.22;5148531;27;20073;-78
2023/10/27 10:10:21;;;;;;;2.80;2.03;;;;;;;11.81;88.34;96819.59;5149223;27;20056;-78
2023/10/27 10:13:02;;;;;;;3.17;2.08;;;;;;;11.79;88.66;96826.88;5148401;27;20051;-78
2023/10/27 10:15:29;;;;;;;3.22;2.00;;;;;;;11.83;88.47;96816.78;5148530;27;20121;-77
2023/10/27 10:17:56;;;;;;;2.63;1.70;;;;;;;11.78;88.47;96816.44;5148294;27;20035;-77
2023/10/27 10:20:57;;;;;;;2.72;1.90;;;;;;;11.79;88.50;96821.56;5148901;27;20039;-78
2023/10/27 10:23:41;;;;;;;3.65;2.38;;;;;;;11.83;88.22;96820.28;5148442;27;20049;-77
2023/10/27 10:26:08;;;;;;;3.42;2.55;;;;;;;11.83;88.77;96825.59;5148950;27;20050;-78
2023/10/27 10:28:36;;;;;;;5.18;3.10;;;;;;;11.88;88.41;96825.13;5148161;27;20051;-77
2023/10/27 10:31:25;;;;;;;5.75;3.03;;;;;;;11.84;89.31;96818.47;5148478;27;20042;-77
2023/10/27 10:34:09;;;;;;;3.75;3.28;;;;;;;11.83;89.42;96790.25;5148377;27;20051;-77
2023/10/27 10:36:36;;;;;;;3.55;2.60;;;;;;;11.80;90.14;96788.75;5147708;27;20069;-77
2023/10/27 10:39:05;;;;;;;3.47;2.42;;;;;;;11.83;90.73;96780.47;5147163;27;20049;-77
2023/10/27 10:42:03;;;;;;;3.45;2.10;;;;;;;11.85;90.76;96788.28;5130367;27;20307;-77
2023/10/27 10:44:31;;;;;;;2.95;1.90;;;;;;;11.39;90.03;96713.31;5148030;27;20047;-77
2023/10/27 10:47:00;;;;;;;3.20;2.00;;;;;;;11.95;89.66;96782.88;5147131;27;20031;-77
2023/10/27 10:49:28;;;;;;;2.53;1.85;;;;;;;11.92;88.88;96778.72;5146966;27;20099;-77
2023/10/27 10:51:56;;;;;;;2.70;1.73;;;;;;;11.79;88.29;96731.34;5148156;27;20051;-77
2023/10/27 10:54:29;;;;;;;3.13;2.05;;;;;;;11.95;88.49;96745.72;5146753;27;20039;-77
2023/10/27 10:57:03;;;;;;;3.22;2.28;;;;;;;11.57;88.26;96692.91;5147899;27;20051;-77
2023/10/27 10:59:31;;;;;;;3.28;2.35;;;;;;;11.91;88.77;96739.06;5147543;27;20229;-77
2023/10/27 11:01:58;;;;;;;4.65;2.72;;;;;;;11.86;88.95;96737.72;5146730;27;20050;-77
2023/10/27 11:04:30;;;;;;;3.55;2.53;;;;;;;11.92;89.05;96730.94;5147794;27;20050;-77
2023/10/27 11:07:01;;;;;;;3.22;2.40;;;;;;;11.94;89.88;96736.09;5147583;27;20303;-77
2023/10/27 11:09:31;;;;;;;3.05;2.20;;;;;;;11.98;88.99;96724.19;5148258;27;20050;-77
2023/10/27 11:11:58;;;;;;;3.53;2.55;;;;;;;11.49;88.96;96645.09;5129143;27;20059;-77
2023/10/27 11:14:25;;;;;;;3.83;2.72;;;;;;;11.97;88.87;96725.16;5145251;27;20039;-77
2023/10/27 11:16:57;;;;;;;4.65;2.97;;;;;;;11.97;89.08;96726.00;5147785;27;20106;-78
2023/10/27 11:19:24;;;;;;;4.25;3.47;;;;;;;11.99;88.74;96708.09;5147649;27;20045;-79
2023/10/27 11:21:54;;;;;;;3.95;2.33;;;;;;;12.04;88.56;96724.41;5147255;27;20051;-78
2023/10/27 11:24:22;;;;;;;4.47;2.47;;;;;;;12.10;88.33;96744.19;5146332;27;20256;-78
2023/10/27 11:26:53;;;;;;;3.40;2.22;;;;;;;12.10;88.02;96746.84;5147625;27;20043;-79
2023/10/27 11:29:20;;;;;;;3.80;2.20;;;;;;;12.12;87.90;96751.00;5146074;27;20050;-79
2023/10/27 11:31:48;;;;;;;3.05;2.10;;;;;;;12.05;87.51;96736.69;5147307;27;20043;-78
2023/10/27 11:34:21;;;;;;;5.47;2.28;;;;;;;11.37;87.06;96662.25;5146077;27;20035;-78
2023/10/27 11:37:08;;;;;;;2.63;2.00;;;;;;;12.11;87.11;96761.78;5147335;27;20050;-78
2023/10/27 11:39:35;;;;;;;3.72;1.90;;;;;;;12.12;86.69;96772.25;5112845;27;20113;-78
2023/10/27 11:42:04;;;;;;;5.45;3.05;;;;;;;12.12;86.95;96771.41;5146766;27;20129;-78